x

Virginia Beach 64 Nm East Of Virginia Beach, Va (44014) Wave Buoy

7:50 - Sat 21st Jan 2017 All times are EST. -5 hours from GMT.

  • Sig Wave height 2.6ft
  • Swell Direction
  • Peak Period 11s
  • Average Period 7s
  • Wind
    7mph, 9mph gusts
  • Sea Temp 57°f
  • Luft Temp 56°f
  • Sea Pressure 1009.3mb
  • Virginia Beach 64 Nm East Of Virginia Beach, Va
  • Virginia Beach 64 Nm East Of Virginia Beach, Va

More Historic Weather Station data

Upgrade to MSW Pro to gain access to the past 30 days of data for over 8000 Wavebouys and Weather Stations around the globe.

Join Pro

Comparision Forecast

View Surf forecast
   
Sa 01/21 7:50 2.5ft 11s 7s 7 9 mph 1009.3mb 57f 56f
6:50 3ft 11s 7s 7
mph
1010mb 57f 56f
5:50 3.5ft 11s 8s 4 7 mph 1010.2mb 57f 56f
4:50 3.5ft 11s 7s 4 7 mph 1010.2mb 56f 55f
3:50 3.5ft 11s 7s 4 7 mph 1010.2mb 57f 56f
2:50 3ft 11s 7s 4
mph
1010.3mb 57f 56f
1:50 3ft 11s 7s 7
mph
1011mb 56f 56f
12:50 3.5ft 11s 7s 4 7 mph 1011.3mb 56f 56f
11:50 3.5ft 11s 7s 2 4 mph 1012.2mb 56f 56f
10:50 3.5ft 11s 6s 4
mph
1013.4mb 55f 55f
9:50 3.5ft 11s 7s 2 4 mph 1013.6mb 55f 54f
8:50 3.5ft 10s 7s 7 11 mph 1013.5mb 56f 53f
7:50 3.5ft 10s 6s 7 11 mph 1013.3mb 57f 52f
6:50 3.5ft 11s 6s 11 13 mph 1013.1mb 57f 52f
5:50 4ft 11s 6s 9 13 mph 1013.2mb 58f 53f
4:50 4.5ft 10s 7s 13 16 mph 1012.7mb 58f 53f
3:50 4ft 11s 6s 11 13 mph 1012.7mb 58f 54f
2:50 5ft 12s 8s 11 13 mph 1012.6mb 58f 54f
1:50 5ft 12s 7s 11 13 mph 1012.2mb 58f 55f
12:50 5ft 12s 6s 16 18 mph 1011.9mb 58f 56f
Fr 01/20 11:50 4.5ft 11s 6s 16 20 mph 1011.7mb 58f 55f
10:50 5ft 12s 7s 16 18 mph 1011.7mb 58f 56f
9:50 5ft 12s 7s 13 16 mph 1012mb 58f 55f
8:50 4.5ft 10s 6s 11
mph
1011.8mb 58f 57f
7:50 4.5ft 11s 6s 13 18 mph 1011mb 58f 57f
6:50 4.5ft 11s 6s 18 20 mph 1011mb 58f 56f
5:50 5ft 11s 6s 18 22 mph 1010.6mb 58f 55f
4:50 4.5ft 12s 7s 18 22 mph 1011.4mb 58f 54f
3:50 4.5ft 11s 8s 13 18 mph 1011.8mb 58f 53f
2:50 5ft 13s 9s 11 13 mph 1011.9mb 58f 54f
1:50 5ft 11s 8s 9 11 mph 1012.2mb 58f 55f
12:50 5ft 12s 9s 7 9 mph 1012.7mb 58f 55f
11:50 5ft 13s 9s 4 7 mph 1013.4mb 57f 54f
10:50 5.5ft 14s 9s 2 4 mph 1015mb 57f 53f
9:50 5.5ft 11s 9s 2
mph
1015.9mb 56f 53f
8:50 5ft 11s 8s 2
mph
1015.3mb 56f 52f
7:50 5.5ft 11s 9s 4 7 mph 1015.5mb 56f 52f
6:50 5ft 11s 9s 2 7 mph 1015.2mb 56f 52f
5:50 5.5ft 13s 9s 2 4 mph 1015mb 56f 51f
4:50 5ft 13s 8s 2 4 mph 1015.3mb 56f 51f
3:50 5ft 12s 8s 2 4 mph 1015.8mb 56f 51f
2:50 5ft 11s 8s 4 7 mph 1016.2mb 56f 51f
1:50 5.5ft 11s 8s 7 9 mph 1016.2mb 55f 51f
12:50 5.5ft 11s 8s 9 11 mph 1016.2mb 56f 50f
Do 01/19 11:50 5ft 11s 8s 9 11 mph 1016.6mb 56f 50f
10:50 5ft 11s 8s 7 9 mph 1016.8mb 57f 49f
9:50 5ft 11s 8s 7 9 mph 1016.7mb 58f 49f
8:50 5.5ft 11s 8s 4 7 mph 1017.2mb 57f 48f
7:50 5.5ft 10s 7s 7 9 mph 1017.5mb 56f 48f
6:50 4.5ft 10s 7s 7 9 mph 1017.7mb 56f 48f
5:50 5ft 9s 6s 9 11 mph 1017.4mb 58f 49f
4:50 5ft 9s 6s 11 13 mph 1016.6mb 58f 49f
3:50 5ft 9s 6s 11 13 mph 1016mb 59f 48f
2:50 5ft 9s 6s 11 13 mph 1016.2mb 59f 49f
1:50 5ft 8s 6s 13 18 mph 1016.7mb 59f 49f
12:50 5ft 8s 6s 13 18 mph 1017mb 59f 50f
11:50 5ft 8s 5s 16 18 mph 1017.8mb 59f 50f
10:50 4.5ft 7s 5s 16 20 mph 1018.5mb 60f 51f
9:50 5ft 8s 5s 16 20 mph 1018.2mb 59f 51f
8:50 5ft 8s 5s 16 20 mph 1017.9mb 58f 50f
7:50 5.5ft 7s 5s 18 22 mph 1017.6mb 55f 50f
6:50 5ft 7s 5s 22 29 mph 1017.2mb 55f 50f
5:50 5.5ft 7s 5s 22 25 mph 1017mb 57f 50f
4:50 6ft 7s 5s 25 29 mph 1016.2mb 57f 50f
3:50 6ft 8s 5s 25 27 mph 1015.8mb 57f 50f
2:50 6.5ft 7s 5s 25 27 mph 1015.9mb 57f 50f
1:50 6.5ft 8s 5s 25 29 mph 1015.5mb 57f 51f
12:50 6ft 7s 5s 22 27 mph 1015.6mb 57f 51f
Mi 01/18 11:50 5.5ft 6s 5s 25 31 mph 1015.1mb 57f 51f
10:50 5.5ft 6s 5s 25 29 mph 1015.3mb 57f 52f
9:50 5ft 6s 5s 29 34 mph 1015.4mb 56f 53f
8:50 4.5ft 6s 5s 22 27 mph 1016.1mb 56f 52f
7:50 4.5ft 6s 4s 20 25 mph 1015.6mb 56f 52f
6:50 4.5ft 6s 4s 20 22 mph 1015.1mb 56f 52f
5:50 5ft 5s 5s 18 20 mph 1014.6mb 56f 52f
4:50 4.5ft 4s 4s 20 25 mph 1013.5mb 57f 53f
3:50 5ft 5s 4s 22 25 mph 1012.8mb 57f 53f
2:50 4.5ft 4s 4s 27 36 mph 1012mb 57f 52f
1:50 3.5ft 7s 4s 27 31 mph 1010.8mb 57f 53f
12:50 4ft 6s 5s 20 22 mph 1010.4mb 57f 54f
11:50 4ft 6s 5s 9 13 mph 1011.1mb 57f 56f
10:50 4ft 6s 5s 9 11 mph 1012.1mb 57f 56f
9:50 4ft 5s 4s 16 18 mph 1011.9mb 57f 57f
8:50 4ft 5s 4s 18 22 mph 1011.3mb 57f 57f
7:50 4.5ft 5s 4s  -  mph 1011.6mb 57f 56f
6:50 4ft 5s 4s 18 22 mph 1011.3mb 57f 57f
5:50 4.5ft 5s 4s 18 20 mph 1011.9mb 57f 57f
4:50 4.5ft 5s 4s 18 22 mph 1012mb 56f 58f
3:50 4.5ft 5s 4s 22 25 mph 1012mb 56f 58f
2:50 4ft 5s 4s 22 27 mph 1012.6mb 57f 58f